Time;durP1;ratioP1;P1;durP2;ratioP2;P2;SDS_P1;SDS_P2;PMS_P1;PMS_P2;Temp;Humidity;BMP_temperature;BMP_pressure;BME280_temperature;BME280_humidity;BME280_pressure;Samples;Min_cycle;Max_cycle;Signal;HPM_P1;HPM_P2
2023/02/06 00:01:29;;;;;;;;;;;;;;;30.77;14.74;101339.47;5077857;28;1890;-30
2023/02/06 00:03:54;;;;;;;;;;;;;;;30.78;14.70;101343.03;5077020;28;869;-28
2023/02/06 00:06:20;;;;;;;;;;;;;;;30.84;14.66;101334.13;5076483;28;1134;-28
2023/02/06 00:08:45;;;;;;;;;;;;;;;30.96;14.70;101325.44;5077432;28;1094;-28
2023/02/06 00:11:11;;;;;;;;;;;;;;;30.94;14.77;101325.63;5077601;28;1051;-29
2023/02/06 00:13:36;;;;;;;;;;;;;;;30.95;14.50;101316.44;5059752;28;1191;-29
2023/02/06 00:16:02;;;;;;;;;;;;;;;30.80;14.73;101289.34;5077166;28;1085;-28
2023/02/06 00:18:27;;;;;;;;;;;;;;;30.98;14.48;101299.75;5076695;28;1064;-33
2023/02/06 00:20:52;;;;;;;;;;;;;;;31.00;14.59;101303.13;5077259;28;1898;-30
2023/02/06 00:23:18;;;;;;;;;;;;;;;30.90;14.55;101298.03;5077489;28;1154;-28
2023/02/06 00:25:43;;;;;;;;;;;;;;;31.03;14.55;101300.00;5076706;28;1139;-33
2023/02/06 00:28:08;;;;;;;;;;;;;;;31.10;14.64;101299.22;5077019;28;1220;-28
2023/02/06 00:30:33;;;;;;;;;;;;;;;31.11;14.55;101301.75;5077012;28;1111;-28
2023/02/06 00:32:59;;;;;;;;;;;;;;;31.05;14.69;101299.81;5076388;28;1106;-29
2023/02/06 00:35:24;;;;;;;;;;;;;;;31.07;14.65;101297.75;5077738;28;1083;-30
2023/02/06 00:37:49;;;;;;;;;;;;;;;31.09;14.54;101301.09;5074029;28;1238;-32
2023/02/06 00:40:15;;;;;;;;;;;;;;;31.18;14.58;101303.69;5076640;28;869;-32
2023/02/06 00:42:40;;;;;;;;;;;;;;;31.13;14.43;101302.38;5077128;28;1910;-30
2023/02/06 00:45:06;;;;;;;;;;;;;;;31.14;14.36;101322.25;5077497;28;1221;-28
2023/02/06 00:47:31;;;;;;;;;;;;;;;30.61;14.62;101297.13;5076532;28;1072;-28
2023/02/06 00:49:57;;;;;;;;;;;;;;;29.91;15.11;101298.38;5076494;28;1075;-31
2023/02/06 00:52:22;;;;;;;;;;;;;;;30.75;14.85;101284.47;5076617;28;1074;-30
2023/02/06 00:54:47;;;;;;;;;;;;;;;30.71;14.83;101304.94;5076464;28;1126;-30
2023/02/06 00:57:12;;;;;;;;;;;;;;;30.74;14.63;101290.13;5076590;28;1119;-27
2023/02/06 00:59:38;;;;;;;;;;;;;;;30.87;14.63;101297.56;5076884;28;1206;-28
2023/02/06 01:02:03;;;;;;;;;;;;;;;30.92;14.71;101284.25;5075706;28;1989;-28
2023/02/06 01:04:28;;;;;;;;;;;;;;;30.92;14.73;101285.09;5076891;28;1027;-31
2023/02/06 01:06:54;;;;;;;;;;;;;;;31.03;14.67;101291.03;5076409;28;1110;-30
2023/02/06 01:09:19;;;;;;;;;;;;;;;30.95;14.68;101293.88;5076214;28;1091;-28
2023/02/06 01:11:44;;;;;;;;;;;;;;;30.95;14.67;101274.88;5076608;28;1130;-27
2023/02/06 01:14:09;;;;;;;;;;;;;;;30.98;14.74;101277.19;5075930;28;1059;-32
2023/02/06 01:16:35;;;;;;;;;;;;;;;31.02;14.73;101278.47;5076197;28;1115;-27
2023/02/06 01:19:00;;;;;;;;;;;;;;;31.10;14.64;101283.75;5076787;28;1197;-29
2023/02/06 01:21:25;;;;;;;;;;;;;;;31.16;14.41;101282.13;5076295;28;1987;-28
2023/02/06 01:23:51;;;;;;;;;;;;;;;31.19;14.36;101289.03;5075732;28;1138;-29
2023/02/06 01:26:17;;;;;;;;;;;;;;;31.22;14.35;101275.91;5076166;28;1162;-29
2023/02/06 01:28:43;;;;;;;;;;;;;;;31.30;14.54;101293.09;5058042;28;1009;-30
2023/02/06 01:31:28;;;;;;;;;;;;;;;31.26;14.53;101284.50;5076559;28;1134;-28
2023/02/06 01:33:54;;;;;;;;;;;;;;;31.36;14.28;101300.44;5075712;28;1841;-26
2023/02/06 01:36:20;;;;;;;;;;;;;;;31.33;14.18;101309.84;5076354;28;1063;-29
2023/02/06 01:38:45;;;;;;;;;;;;;;;30.52;14.49;101298.25;5075973;28;1171;-29
2023/02/06 01:41:10;;;;;;;;;;;;;;;30.03;14.97;101296.00;5058259;28;1895;-29
2023/02/06 01:43:37;;;;;;;;;;;;;;;30.86;14.72;101304.03;5076198;28;1134;-28
2023/02/06 01:46:02;;;;;;;;;;;;;;;30.83;14.76;101301.72;5075785;28;1106;-28
2023/02/06 01:48:41;;;;;;;;;;;;;;;30.83;14.58;101304.44;5076516;28;1151;-30
2023/02/06 01:51:07;;;;;;;;;;;;;;;30.79;14.88;101296.66;5075502;28;1059;-31
2023/02/06 01:53:33;;;;;;;;;;;;;;;30.86;14.64;101302.19;5075915;28;1129;-29
2023/02/06 01:55:58;;;;;;;;;;;;;;;30.83;14.70;101296.28;5058192;28;1091;-29
2023/02/06 01:58:29;;;;;;;;;;;;;;;30.93;14.57;101288.63;5058178;28;1071;-29
2023/02/06 02:00:54;;;;;;;;;;;;;;;30.98;14.60;101296.22;5057945;28;1902;-30
2023/02/06 02:03:19;;;;;;;;;;;;;;;31.07;14.39;101296.88;5058269;28;1127;-27
2023/02/06 02:05:45;;;;;;;;;;;;;;;31.08;14.32;101295.88;5057745;28;1055;-29
2023/02/06 02:08:17;;;;;;;;;;;;;;;30.92;14.40;101274.22;5075715;28;1016;-29
2023/02/06 02:10:42;;;;;;;;;;;;;;;31.25;14.38;101286.38;5057859;28;1083;-28
2023/02/06 02:13:08;;;;;;;;;;;;;;;31.21;14.39;101301.41;5076130;28;1158;-29
2023/02/06 02:15:52;;;;;;;;;;;;;;;31.28;14.42;101285.97;5075287;28;1142;-29
2023/02/06 02:18:25;;;;;;;;;;;;;;;31.30;14.15;101288.47;5075868;28;1175;-28
2023/02/06 02:20:50;;;;;;;;;;;;;;;31.32;14.22;101288.28;5057727;28;1910;-29
2023/02/06 02:23:20;;;;;;;;;;;;;;;31.26;14.13;101293.47;5075610;28;1129;-26
2023/02/06 02:25:48;;;;;;;;;;;;;;;30.28;15.05;101279.44;5058313;28;1158;-30
2023/02/06 02:28:17;;;;;;;;;;;;;;;29.85;15.17;101284.72;5075409;28;1067;-27
2023/02/06 02:30:42;;;;;;;;;;;;;;;30.63;14.49;101261.63;5079358;28;1052;-29
2023/02/06 02:33:16;;;;;;;;;;;;;;;29.93;15.34;101281.91;5079442;28;1044;-30
2023/02/06 02:35:54;;;;;;;;;;;;;;;30.33;15.11;101286.16;5079061;28;1127;-33
2023/02/06 02:38:38;;;;;;;;;;;;;;;30.70;14.69;101288.84;5061123;28;1067;-30
2023/02/06 02:41:08;;;;;;;;;;;;;;;30.69;14.66;101290.69;5078783;28;1902;-28
2023/02/06 02:43:33;;;;;;;;;;;;;;;30.73;14.71;101297.41;5061635;28;1158;-29
2023/02/06 02:46:03;;;;;;;;;;;;;;;30.79;14.80;101307.53;5078781;28;1091;-27
2023/02/06 02:48:29;;;;;;;;;;;;;;;30.85;14.57;101297.75;5061249;28;1138;-29
2023/02/06 02:50:55;;;;;;;;;;;;;;;30.70;14.67;101300.53;5078445;28;1134;-26
2023/02/06 02:53:20;;;;;;;;;;;;;;;30.86;14.70;101301.31;5078499;28;1190;-29
2023/02/06 02:55:45;;;;;;;;;;;;;;;30.86;14.57;101299.47;5078739;28;1397;-27
2023/02/06 02:58:12;;;;;;;;;;;;;;;30.93;14.54;101310.34;5078994;28;1201;-28
2023/02/06 03:00:38;;;;;;;;;;;;;;;30.94;14.57;101311.22;5060537;28;1272;-29
2023/02/06 03:03:04;;;;;;;;;;;;;;;31.01;14.48;101307.50;5078601;28;1965;-28
2023/02/06 03:05:29;;;;;;;;;;;;;;;31.11;14.43;101315.34;5078425;28;1103;-27
2023/02/06 03:07:55;;;;;;;;;;;;;;;31.12;14.30;101305.28;5060908;28;1139;-28
2023/02/06 03:10:39;;;;;;;;;;;;;;;30.26;14.62;101324.09;5079045;28;1261;-31
2023/02/06 03:13:07;;;;;;;;;;;;;;;29.68;15.03;101312.03;5078863;28;1126;-30
2023/02/06 03:15:46;;;;;;;;;;;;;;;30.89;14.40;101315.38;5078097;28;1154;-27
2023/02/06 03:18:13;;;;;;;;;;;;;;;30.75;14.66;101313.50;5060410;28;1055;-26
2023/02/06 03:20:39;;;;;;;;;;;;;;;30.85;14.63;101314.06;5060722;28;1096;-28
2023/02/06 03:23:05;;;;;;;;;;;;;;;30.95;14.39;101319.16;5060454;28;1914;-28
2023/02/06 03:25:32;;;;;;;;;;;;;;;31.05;14.42;101302.53;5078454;28;1218;-28
2023/02/06 03:27:58;;;;;;;;;;;;;;;31.02;14.51;101316.50;5077938;28;1071;-30
2023/02/06 03:30:23;;;;;;;;;;;;;;;30.48;14.48;101318.69;5078186;28;1083;-31
2023/02/06 03:32:49;;;;;;;;;;;;;;;29.84;13.91;101310.16;5077965;28;1107;-29
2023/02/06 03:35:19;;;;;;;;;;;;;;;29.41;14.10;101309.75;5060668;28;1134;-27
2023/02/06 03:37:44;;;;;;;;;;;;;;;27.60;15.12;101308.78;5059938;28;1083;-28
2023/02/06 03:40:10;;;;;;;;;;;;;;;27.98;14.95;101292.78;5060079;28;1118;-28
2023/02/06 03:42:37;;;;;;;;;;;;;;;28.44;14.63;101309.34;5078104;28;1902;-30
2023/02/06 03:45:04;;;;;;;;;;;;;;;28.91;14.20;101307.47;5077905;28;1059;-31
2023/02/06 03:47:29;;;;;;;;;;;;;;;28.97;14.18;101300.50;5077331;28;1142;-30
2023/02/06 03:49:55;;;;;;;;;;;;;;;28.47;14.35;101315.22;5060621;28;1044;-31
2023/02/06 03:52:22;;;;;;;;;;;;;;;28.50;14.20;101310.47;5059407;28;1071;-30
2023/02/06 03:54:48;;;;;;;;;;;;;;;28.66;14.20;101312.25;5059855;28;1167;-31
2023/02/06 03:57:14;;;;;;;;;;;;;;;28.97;13.72;101322.19;5059780;28;1207;-29
2023/02/06 03:59:39;;;;;;;;;;;;;;;29.25;13.67;101310.75;5077717;28;1123;-28
2023/02/06 04:02:04;;;;;;;;;;;;;;;29.31;13.61;101291.03;5076648;28;1905;-27
2023/02/06 04:04:31;;;;;;;;;;;;;;;29.29;13.24;101319.38;5059926;28;1040;-27
2023/02/06 04:07:00;;;;;;;;;;;;;;;28.93;12.93;101301.84;5076663;28;1103;-26
2023/02/06 04:09:25;;;;;;;;;;;;;;;26.16;13.43;101324.97;5077390;28;1027;-31
2023/02/06 04:11:51;;;;;;;;;;;;;;;28.17;13.05;101327.69;5077241;28;1142;-31
2023/02/06 04:14:16;;;;;;;;;;;;;;;27.38;13.62;101333.63;5074091;28;1285;-26
2023/02/06 04:16:41;;;;;;;;;;;;;;;27.39;13.68;101351.53;5076977;28;995;-29
2023/02/06 04:19:07;;;;;;;;;;;;;;;27.32;13.79;101347.84;5077203;28;1067;-27
2023/02/06 04:21:32;;;;;;;;;;;;;;;27.36;13.63;101330.25;5076805;28;1914;-26
2023/02/06 04:23:57;;;;;;;;;;;;;;;27.39;13.99;101346.13;5077333;28;1155;-28
2023/02/06 04:26:22;;;;;;;;;;;;;;;27.60;13.70;101352.84;5076742;28;1559;-27
2023/02/06 04:28:48;;;;;;;;;;;;;;;27.60;13.33;101349.31;5076870;28;899;-27
2023/02/06 04:31:13;;;;;;;;;;;;;;;27.56;13.59;101323.66;5077105;28;1237;-29
2023/02/06 04:33:38;;;;;;;;;;;;;;;27.74;13.49;101355.91;5077580;28;1123;-30
2023/02/06 04:36:04;;;;;;;;;;;;;;;27.69;13.45;101351.03;5076687;28;1174;-30
2023/02/06 04:38:29;;;;;;;;;;;;;;;27.86;13.41;101356.38;5076857;28;1361;-28
2023/02/06 04:40:54;;;;;;;;;;;;;;;27.89;13.82;101364.16;5077217;28;1897;-30
2023/02/06 04:43:19;;;;;;;;;;;;;;;27.62;13.38;101334.63;5076626;28;1110;-28
2023/02/06 04:45:45;;;;;;;;;;;;;;;27.72;13.32;101342.56;5076900;28;1142;-26
2023/02/06 04:48:10;;;;;;;;;;;;;;;27.85;13.36;101349.28;5077180;28;1352;-27
2023/02/06 04:50:36;;;;;;;;;;;;;;;27.73;13.63;101349.66;5076350;28;1178;-27
2023/02/06 04:53:01;;;;;;;;;;;;;;;27.83;13.17;101356.72;5076813;28;868;-31
2023/02/06 04:55:26;;;;;;;;;;;;;;;25.09;13.35;101363.66;5076713;28;1047;-28
2023/02/06 04:57:52;;;;;;;;;;;;;;;27.65;13.27;101325.31;5083826;28;1131;-27
2023/02/06 05:00:17;;;;;;;;;;;;;;;28.29;13.00;101372.28;5079605;28;1134;-26
2023/02/06 05:02:42;;;;;;;;;;;;;;;28.60;13.15;101374.19;5076520;28;1902;-25
2023/02/06 05:05:07;;;;;;;;;;;;;;;28.69;12.96;101372.28;5075868;28;1072;-25
2023/02/06 05:07:33;;;;;;;;;;;;;;;28.53;12.89;101394.84;5074732;28;1027;-25
2023/02/06 05:09:58;;;;;;;;;;;;;;;28.20;13.36;101387.69;5068415;28;943;-26
2023/02/06 05:12:24;;;;;;;;;;;;;;;27.50;14.15;101387.31;5075204;28;2120;-25
2023/02/06 05:14:49;;;;;;;;;;;;;;;27.09;14.85;101396.28;5075730;28;1050;-27
2023/02/06 05:17:14;;;;;;;;;;;;;;;27.22;14.61;101388.53;5075423;28;1016;-27
2023/02/06 05:19:40;;;;;;;;;;;;;;;27.73;14.69;101403.72;5075764;28;1092;-26
2023/02/06 05:22:05;;;;;;;;;;;;;;;27.56;15.24;101394.75;5075378;28;1997;-27
2023/02/06 05:24:30;;;;;;;;;;;;;;;27.26;15.45;101391.69;5075883;28;993;-28
2023/02/06 05:26:59;;;;;;;;;;;;;;;27.49;15.42;101404.56;5075398;28;1055;-28
2023/02/06 05:29:24;;;;;;;;;;;;;;;27.98;14.97;101402.81;5075010;28;850;-27
2023/02/06 05:31:50;;;;;;;;;;;;;;;27.28;15.81;101411.28;5057324;28;1104;-26
2023/02/06 05:34:15;;;;;;;;;;;;;;;27.22;16.15;101415.53;5075858;28;1039;-27
2023/02/06 05:36:40;;;;;;;;;;;;;;;27.11;16.15;101405.06;5075609;28;1079;-27
2023/02/06 05:39:05;;;;;;;;;;;;;;;27.28;15.88;101392.38;5075059;28;1439;-29
2023/02/06 05:41:31;;;;;;;;;;;;;;;26.83;16.38;101406.16;5075044;28;1909;-28
2023/02/06 05:43:56;;;;;;;;;;;;;;;26.95;16.28;101395.03;5075491;28;1011;-27
2023/02/06 05:46:21;;;;;;;;;;;;;;;27.22;16.07;101401.19;5075804;28;1175;-26
2023/02/06 05:48:47;;;;;;;;;;;;;;;27.46;15.68;101389.50;5075539;28;1086;-27
2023/02/06 05:51:12;;;;;;;;;;;;;;;27.79;15.42;101391.38;5074991;28;1031;-27
2023/02/06 05:53:37;;;;;;;;;;;;;;;27.86;15.38;101383.44;5075715;28;896;-29
2023/02/06 05:56:04;;;;;;;;;;;;;;;27.92;15.14;101400.81;5074993;28;1028;-27
2023/02/06 05:58:29;;;;;;;;;;;;;;;28.03;15.22;101400.44;5077147;28;2193;-27
2023/02/06 06:00:54;;;;;;;;;;;;;;;27.92;15.24;101414.31;5057192;28;1901;-29
2023/02/06 06:03:20;;;;;;;;;;;;;;;28.06;15.01;101415.47;5075071;28;974;-27
2023/02/06 06:05:45;;;;;;;;;;;;;;;27.81;15.11;101410.94;5078874;28;1207;-29
2023/02/06 06:08:10;;;;;;;;;;;;;;;28.04;15.05;101417.50;5078849;28;1104;-26
2023/02/06 06:10:35;;;;;;;;;;;;;;;28.14;15.21;101417.31;5079031;28;1116;-27
2023/02/06 06:13:01;;;;;;;;;;;;;;;27.85;15.14;101423.13;5078651;28;988;-26
2023/02/06 06:15:26;;;;;;;;;;;;;;;27.12;15.72;101423.78;5078689;28;1041;-27
2023/02/06 06:17:51;;;;;;;;;;;;;;;26.95;15.94;101414.78;5078720;28;946;-29
2023/02/06 06:20:17;;;;;;;;;;;;;;;27.72;15.59;101420.09;5078944;28;1252;-27
2023/02/06 06:22:42;;;;;;;;;;;;;;;27.55;15.36;101390.38;5078260;28;1914;-28
2023/02/06 06:25:07;;;;;;;;;;;;;;;28.26;15.10;101424.00;5079069;28;1135;-28
2023/02/06 06:27:32;;;;;;;;;;;;;;;28.43;14.78;101429.41;5060720;28;1913;-29
2023/02/06 06:29:58;;;;;;;;;;;;;;;28.44;14.84;101453.59;5079237;28;1016;-30
2023/02/06 06:32:23;;;;;;;;;;;;;;;28.22;14.70;101455.16;5078676;28;1187;-29
2023/02/06 06:34:48;;;;;;;;;;;;;;;27.56;15.53;101461.47;5060688;28;1179;-27
2023/02/06 06:37:14;;;;;;;;;;;;;;;27.66;15.25;101450.50;5078703;28;1147;-28
2023/02/06 06:39:39;;;;;;;;;;;;;;;28.33;14.83;101457.53;5060690;28;1156;-29
2023/02/06 06:42:04;;;;;;;;;;;;;;;27.69;15.22;101453.75;5077448;28;1971;-27
2023/02/06 06:44:30;;;;;;;;;;;;;;;27.35;15.65;101457.41;5078748;28;1131;-30
2023/02/06 06:46:55;;;;;;;;;;;;;;;27.82;15.44;101458.63;5078321;28;1119;-27
2023/02/06 06:49:20;;;;;;;;;;;;;;;27.25;15.55;101444.06;5078459;28;1067;-28
2023/02/06 06:51:46;;;;;;;;;;;;;;;27.34;15.85;101445.72;5060492;28;1040;-25
2023/02/06 06:54:11;;;;;;;;;;;;;;;27.23;15.94;101444.22;5078464;28;1086;-26
2023/02/06 06:56:36;;;;;;;;;;;;;;;27.14;15.94;101424.44;5077998;28;1108;-30
2023/02/06 06:59:02;;;;;;;;;;;;;;;27.20;15.75;101465.31;5080731;28;2213;-26
2023/02/06 07:01:27;;;;;;;;;;;;;;;27.23;16.15;101470.38;5078188;28;1967;-30
2023/02/06 07:03:52;;;;;;;;;;;;;;;27.24;16.18;101475.59;5078510;28;1063;-27
2023/02/06 07:06:18;;;;;;;;;;;;;;;27.40;16.09;101487.47;5077994;28;1191;-28
2023/02/06 07:08:43;;;;;;;;;;;;;;;27.90;15.64;101490.19;5078356;28;1253;-25
2023/02/06 07:11:09;;;;;;;;;;;;;;;27.82;15.56;101482.09;5078814;28;1072;-26
2023/02/06 07:13:34;;;;;;;;;;;;;;;27.72;16.01;101512.00;5078226;28;1012;-26
2023/02/06 07:15:59;;;;;;;;;;;;;;;27.89;15.58;101466.03;5077529;28;1086;-28
2023/02/06 07:18:25;;;;;;;;;;;;;;;27.62;15.76;101504.88;5077458;28;926;-31
2023/02/06 07:20:50;;;;;;;;;;;;;;;27.60;15.97;101508.75;5078084;28;1456;-26
2023/02/06 07:23:15;;;;;;;;;;;;;;;27.42;16.19;101508.91;5077635;28;1980;-28
2023/02/06 07:25:41;;;;;;;;;;;;;;;27.05;16.65;101530.78;5077703;28;1111;-28
2023/02/06 07:28:06;;;;;;;;;;;;;;;27.44;15.78;101533.91;5084549;28;1887;-26
2023/02/06 07:30:32;;;;;;;;;;;;;;;27.43;16.17;101548.41;5059692;28;906;-29
2023/02/06 07:32:57;;;;;;;;;;;;;;;27.71;16.31;101549.00;5077586;28;1248;-28
2023/02/06 07:35:22;;;;;;;;;;;;;;;27.56;16.05;101556.88;5077771;28;1075;-28
2023/02/06 07:37:48;;;;;;;;;;;;;;;27.69;15.97;101577.22;5077232;28;1147;-26
2023/02/06 07:40:13;;;;;;;;;;;;;;;27.62;16.17;101580.56;5077388;28;1267;-27
2023/02/06 07:42:38;;;;;;;;;;;;;;;27.36;16.39;101594.19;5076582;28;1959;-26
2023/02/06 07:45:04;;;;;;;;;;;;;;;27.83;16.16;101594.63;5077346;28;1123;-29
2023/02/06 07:47:29;;;;;;;;;;;;;;;27.54;16.69;101604.88;5077614;28;1075;-27
2023/02/06 07:49:54;;;;;;;;;;;;;;;27.72;16.28;101618.28;5077028;28;1092;-27
2023/02/06 07:52:21;;;;;;;;;;;;;;;27.80;16.44;101608.47;5077062;28;1214;-27
2023/02/06 07:54:46;;;;;;;;;;;;;;;27.56;16.88;101623.63;5076667;28;841;-30
2023/02/06 07:57:11;;;;;;;;;;;;;;;27.63;16.56;101630.03;5076087;28;2002;-30
2023/02/06 07:59:37;;;;;;;;;;;;;;;27.85;16.28;101625.06;5077423;28;1132;-27
2023/02/06 08:02:02;;;;;;;;;;;;;;;27.40;16.73;101638.75;5076642;28;1901;-26
2023/02/06 08:04:33;;;;;;;;;;;;;;;27.11;17.28;101635.44;5076622;28;1091;-28
2023/02/06 08:06:59;;;;;;;;;;;;;;;27.19;17.42;101637.34;5076710;28;1167;-28
2023/02/06 08:09:24;;;;;;;;;;;;;;;26.95;17.37;101638.00;5076961;28;1037;-31
2023/02/06 08:11:49;;;;;;;;;;;;;;;26.97;17.40;101638.72;5075868;28;1362;-29
2023/02/06 08:14:14;;;;;;;;;;;;;;;27.20;17.35;101657.94;5076139;28;1262;-29
2023/02/06 08:16:40;;;;;;;;;;;;;;;27.11;17.08;101667.00;5076609;28;1195;-27
2023/02/06 08:19:09;;;;;;;;;;;;;;;27.54;16.79;101653.53;5058028;28;978;-26
2023/02/06 08:21:35;;;;;;;;;;;;;;;27.70;17.02;101676.22;5075927;28;1972;-26
2023/02/06 08:24:00;;;;;;;;;;;;;;;27.77;16.37;101660.19;5075577;28;1271;-30
2023/02/06 08:26:26;;;;;;;;;;;;;;;27.67;16.67;101687.31;5075359;28;1297;-28
2023/02/06 08:28:52;;;;;;;;;;;;;;;27.66;16.73;101704.56;5084163;28;2070;-32
2023/02/06 08:31:24;;;;;;;;;;;;;;;27.45;16.92;101679.66;5074265;28;1243;-28
2023/02/06 08:33:49;;;;;;;;;;;;;;;27.16;17.39;101701.63;5074350;28;1082;-30
2023/02/06 08:36:15;;;;;;;;;;;;;;;27.61;16.93;101678.84;5076298;28;1227;-30
2023/02/06 08:38:40;;;;;;;;;;;;;;;27.81;16.60;101696.72;5075674;28;1051;-29
2023/02/06 08:41:12;;;;;;;;;;;;;;;27.99;16.66;101692.00;5075641;28;1953;-26
2023/02/06 08:43:38;;;;;;;;;;;;;;;27.74;16.82;101693.81;5075972;28;982;-27
2023/02/06 08:46:03;;;;;;;;;;;;;;;27.84;16.75;101693.66;5075491;28;1136;-24
2023/02/06 08:48:28;;;;;;;;;;;;;;;27.72;16.38;101683.16;5076207;28;958;-25
2023/02/06 08:51:01;;;;;;;;;;;;;;;27.81;16.26;101694.81;5075870;28;1039;-24
2023/02/06 08:53:26;;;;;;;;;;;;;;;27.84;16.68;101677.44;5075804;28;994;-26
2023/02/06 08:56:01;;;;;;;;;;;;;;;28.23;16.47;101700.31;5075164;28;900;-25
2023/02/06 08:58:27;;;;;;;;;;;;;;;28.46;16.14;101678.06;5076296;28;2214;-32
2023/02/06 09:00:52;;;;;;;;;;;;;;;28.32;16.33;101682.22;5076101;28;1067;-29
2023/02/06 09:03:17;;;;;;;;;;;;;;;28.27;16.04;101693.56;5075827;28;1976;-24
2023/02/06 09:05:43;;;;;;;;;;;;;;;28.16;16.17;101700.13;5075401;28;1091;-25
2023/02/06 09:08:08;;;;;;;;;;;;;;;27.73;16.83;101694.81;5074424;28;1196;-27
2023/02/06 09:10:33;;;;;;;;;;;;;;;28.08;16.75;101687.44;5075987;28;1219;-27
2023/02/06 09:12:59;;;;;;;;;;;;;;;28.17;16.36;101707.25;5075794;28;1130;-24
2023/02/06 09:15:24;;;;;;;;;;;;;;;28.24;16.28;101707.44;5076087;28;1023;-25
2023/02/06 09:17:49;;;;;;;;;;;;;;;28.29;16.15;101710.50;5075674;28;1024;-26
2023/02/06 09:20:15;;;;;;;;;;;;;;;28.32;16.52;101707.44;5071731;28;1246;-25
2023/02/06 09:22:40;;;;;;;;;;;;;;;28.71;16.07;101705.94;5075500;28;1991;-25
2023/02/06 09:25:05;;;;;;;;;;;;;;;28.89;15.91;101720.31;5075563;28;1023;-27
2023/02/06 09:27:31;;;;;;;;;;;;;;;28.59;16.34;101712.72;5075308;28;1789;-25
2023/02/06 09:29:56;;;;;;;;;;;;;;;28.60;16.13;101719.81;5075414;28;1203;-26
2023/02/06 09:32:21;;;;;;;;;;;;;;;28.64;16.00;101696.81;5074643;28;1195;-26
2023/02/06 09:34:46;;;;;;;;;;;;;;;27.96;16.52;101705.84;5074821;28;1035;-30
2023/02/06 09:37:12;;;;;;;;;;;;;;;28.26;16.36;101701.84;5074631;28;1092;-27
2023/02/06 09:39:37;;;;;;;;;;;;;;;28.10;16.10;101706.22;5066008;28;922;-27
2023/02/06 09:42:02;;;;;;;;;;;;;;;28.10;16.12;101706.22;5079341;28;1957;-30
2023/02/06 09:44:31;;;;;;;;;;;;;;;27.91;16.44;101701.97;5079306;28;1080;-28
2023/02/06 09:46:58;;;;;;;;;;;;;;;28.20;15.81;101693.38;5061491;28;1271;-27
2023/02/06 09:49:24;;;;;;;;;;;;;;;27.92;15.90;101688.28;5079207;28;1179;-25
2023/02/06 09:51:53;;;;;;;;;;;;;;;28.05;16.15;101695.03;5078565;28;1153;-27
2023/02/06 09:54:18;;;;;;;;;;;;;;;27.90;16.02;101686.72;5077895;28;1231;-27
2023/02/06 09:57:02;;;;;;;;;;;;;;;27.68;16.21;101691.72;5077844;28;1305;-27
2023/02/06 09:59:33;;;;;;;;;;;;;;;27.66;16.22;101691.06;5076974;28;1231;-25
2023/02/06 10:02:06;;;;;;;;;;;;;;;27.69;16.32;101688.03;5076431;28;1971;-27
2023/02/06 10:04:50;;;;;;;;;;;;;;;28.62;15.06;101689.88;5058765;28;1506;-31
2023/02/06 10:07:17;;;;;;;;;;;;;;;29.13;14.73;101695.03;5074066;28;1261;-27
2023/02/06 10:09:44;;;;;;;;;;;;;;;28.94;15.22;101689.00;5060197;28;1227;-29
2023/02/06 10:12:17;;;;;;;;;;;;;;;28.78;15.30;101697.97;5078797;28;1215;-27
2023/02/06 10:14:47;;;;;;;;;;;;;;;28.87;15.55;101698.81;5060955;28;1227;-26
2023/02/06 10:17:12;;;;;;;;;;;;;;;28.88;15.56;101705.91;5060323;28;1235;-25
2023/02/06 10:19:42;;;;;;;;;;;;;;;28.66;15.77;101693.94;5078570;28;1254;-29
2023/02/06 10:22:12;;;;;;;;;;;;;;;28.40;16.15;101709.31;5078865;28;1972;-27
2023/02/06 10:24:44;;;;;;;;;;;;;;;28.49;15.85;101704.78;5078267;28;1254;-27
2023/02/06 10:27:10;;;;;;;;;;;;;;;27.98;16.29;101694.88;5076838;28;1887;-26
2023/02/06 10:29:35;;;;;;;;;;;;;;;27.83;16.22;101698.22;5078337;28;853;-25
2023/02/06 10:32:19;;;;;;;;;;;;;;;28.18;16.17;101702.66;5077315;28;1099;-32
2023/02/06 10:35:04;;;;;;;;;;;;;;;28.69;15.91;101699.84;5078637;28;1114;-28
2023/02/06 10:37:46;;;;;;;;;;;;;;;28.77;15.36;101715.25;5060238;28;1012;-29
2023/02/06 10:40:17;;;;;;;;;;;;;;;28.50;15.54;101702.88;5060881;28;1087;-25
2023/02/06 10:42:52;;;;;;;;;;;;;;;29.06;15.30;101716.56;5077743;28;1965;-29
2023/02/06 10:45:50;;;;;;;;;;;;;;;28.68;15.89;101719.81;5078293;28;862;-25
2023/02/06 10:48:31;;;;;;;;;;;;;;;28.60;15.78;101720.66;5048018;28;1272;-26
2023/02/06 10:51:15;;;;;;;;;;;;;;;28.60;15.75;101719.81;5059535;28;1032;-25
2023/02/06 10:53:44;;;;;;;;;;;;;;;28.50;15.80;101722.69;5069827;28;1089;-27
2023/02/06 10:56:13;;;;;;;;;;;;;;;28.23;16.01;101730.06;5059691;28;1103;-26
2023/02/06 10:58:38;;;;;;;;;;;;;;;28.62;15.90;101728.63;5066572;28;1904;-28
2023/02/06 11:01:04;;;;;;;;;;;;;;;28.49;15.78;101726.41;5076776;28;1902;-25
2023/02/06 11:03:30;;;;;;;;;;;;;;;28.27;16.35;101722.47;5077526;28;1180;-25
2023/02/06 11:05:56;;;;;;;;;;;;;;;28.48;16.19;101733.69;5060431;28;985;-26
2023/02/06 11:08:26;;;;;;;;;;;;;;;28.34;16.00;101721.66;5059652;28;1128;-26
2023/02/06 11:10:52;;;;;;;;;;;;;;;28.35;16.45;101706.28;5060163;28;1068;-25
2023/02/06 11:13:22;;;;;;;;;;;;;;;28.34;16.43;101710.00;5060010;28;1541;-25
2023/02/06 11:15:51;;;;;;;;;;;;;;;28.13;16.50;101715.88;5078248;28;1031;-24
2023/02/06 11:18:17;;;;;;;;;;;;;;;28.20;16.27;101708.75;5059889;28;1112;-24
2023/02/06 11:20:43;;;;;;;;;;;;;;;28.28;16.46;101713.38;5077690;28;1036;-28
2023/02/06 11:23:20;;;;;;;;;;;;;;;28.26;16.30;101712.69;5077091;28;1981;-28
2023/02/06 11:25:47;;;;;;;;;;;;;;;28.54;16.16;101717.78;5077111;28;1004;-25
2023/02/06 11:28:13;;;;;;;;;;;;;;;28.37;16.38;101706.97;5059483;28;1821;-24
2023/02/06 11:30:39;;;;;;;;;;;;;;;28.17;16.53;101691.03;5058671;28;1005;-26
2023/02/06 11:33:18;;;;;;;;;;;;;;;28.06;16.61;101684.06;5059580;28;966;-25
2023/02/06 11:35:51;;;;;;;;;;;;;;;28.02;16.38;101687.28;5064849;28;993;-31
2023/02/06 11:38:16;;;;;;;;;;;;;;;28.27;16.35;101701.69;5076920;28;1091;-26
2023/02/06 11:40:41;;;;;;;;;;;;;;;27.98;17.01;101700.28;5077097;28;1020;-29
2023/02/06 11:43:16;;;;;;;;;;;;;;;28.22;16.90;101687.81;5076536;28;1969;-27
2023/02/06 11:45:43;;;;;;;;;;;;;;;27.81;16.89;101694.81;5074826;28;1192;-26
2023/02/06 11:48:29;;;;;;;;;;;;;;;28.41;16.64;101694.78;5076818;28;1235;-27
2023/02/06 11:50:54;;;;;;;;;;;;;;;28.34;16.48;101699.19;5076708;28;1167;-25
2023/02/06 11:53:20;;;;;;;;;;;;;;;28.19;17.16;101688.16;5058280;28;1275;-26
2023/02/06 11:55:45;;;;;;;;;;;;;;;27.51;17.97;101692.50;5076545;28;1207;-29
2023/02/06 11:58:11;;;;;;;;;;;;;;;27.75;19.91;101701.75;5058004;28;1872;-28
2023/02/06 12:00:37;;;;;;;;;;;;;;;26.97;23.92;101706.22;5075755;28;1152;-29
2023/02/06 12:03:02;;;;;;;;;;;;;;;26.98;22.91;101692.56;5075679;28;1972;-28
2023/02/06 12:05:29;;;;;;;;;;;;;;;27.34;21.51;101705.09;5076125;28;1108;-28
2023/02/06 12:07:56;;;;;;;;;;;;;;;27.93;19.68;101699.91;5058026;28;1283;-30
2023/02/06 12:10:22;;;;;;;;;;;;;;;27.34;20.75;101701.56;5076478;28;1199;-27
2023/02/06 12:12:52;;;;;;;;;;;;;;;26.96;20.02;101696.44;5076664;28;1014;-25
2023/02/06 12:15:18;;;;;;;;;;;;;;;27.05;20.82;101706.28;5045785;28;994;-27
2023/02/06 12:17:45;;;;;;;;;;;;;;;26.95;20.90;101709.06;5058738;28;1119;-27
2023/02/06 12:20:26;;;;;;;;;;;;;;;27.15;20.63;101711.59;5058564;28;1236;-26
2023/02/06 12:23:10;;;;;;;;;;;;;;;27.47;20.32;101709.22;5057928;28;1993;-29
2023/02/06 12:25:36;;;;;;;;;;;;;;;27.35;20.58;101703.25;5076477;28;976;-27
2023/02/06 12:28:08;;;;;;;;;;;;;;;27.55;19.71;101705.69;5076608;28;1888;-28
2023/02/06 12:30:35;;;;;;;;;;;;;;;27.57;19.86;101711.78;5075956;28;1015;-27
2023/02/06 12:33:07;;;;;;;;;;;;;;;27.94;19.47;101696.22;5070437;28;822;-27
2023/02/06 12:35:55;;;;;;;;;;;;;;;27.63;19.88;101721.94;5076501;28;1063;-26
2023/02/06 12:38:21;;;;;;;;;;;;;;;27.46;19.41;101712.94;5067707;28;1653;-29
2023/02/06 12:40:46;;;;;;;;;;;;;;;27.47;16.58;101711.91;5076104;28;1120;-29
2023/02/06 12:43:12;;;;;;;;;;;;;;;28.35;17.59;101703.56;5075894;28;1905;-28
2023/02/06 12:45:56;;;;;;;;;;;;;;;29.06;17.55;101711.16;5075746;28;954;-28
2023/02/06 12:48:22;;;;;;;;;;;;;;;29.03;17.54;101714.19;5076306;28;1084;-27